createdAt,value
2016-11-10T00:00:43.455Z,993.9
2016-11-10T00:01:58.530Z,993.91
2016-11-10T00:03:11.363Z,993.9
2016-11-10T00:04:27.365Z,993.92
2016-11-10T00:05:43.959Z,994
2016-11-10T00:06:58.748Z,993.99
2016-11-10T00:08:14.589Z,994
2016-11-10T00:09:30.835Z,993.95
2016-11-10T00:10:45.445Z,994
2016-11-10T00:12:01.844Z,993.99
2016-11-10T00:13:15.995Z,993.98
2016-11-10T00:14:31.534Z,994.04
2016-11-10T00:15:45.946Z,994.04
2016-11-10T00:17:02.336Z,994.03
2016-11-10T00:18:16.740Z,994.02
2016-11-10T00:19:32.701Z,994
2016-11-10T00:20:47.169Z,994.04
2016-11-10T00:22:01.938Z,994.07
2016-11-10T00:23:17.790Z,994.07
2016-11-10T00:24:33.792Z,994.09
2016-11-10T00:25:48.729Z,994.07
2016-11-10T00:27:05.517Z,994.12
2016-11-10T00:28:21.246Z,994.16
2016-11-10T00:29:37.298Z,994.19
2016-11-10T00:30:50.229Z,994.18
2016-11-10T00:32:06.165Z,994.2
2016-11-10T00:33:22.075Z,994.21
2016-11-10T00:34:37.831Z,994.22
2016-11-10T00:35:50.990Z,994.23
2016-11-10T00:37:06.821Z,994.22
2016-11-10T00:38:23.020Z,994.24
2016-11-10T00:39:38.874Z,994.23
2016-11-10T00:40:55.121Z,994.24
2016-11-10T00:42:09.879Z,994.24
2016-11-10T00:43:23.926Z,994.24
2016-11-10T00:44:39.960Z,994.24
2016-11-10T00:45:52.998Z,994.27
2016-11-10T00:47:07.597Z,994.26
2016-11-10T00:48:22.201Z,994.29
2016-11-10T00:49:38.443Z,994.3
2016-11-10T00:50:51.425Z,994.35
2016-11-10T00:52:06.072Z,994.36
2016-11-10T00:53:20.277Z,994.39
2016-11-10T00:54:35.118Z,994.36
2016-11-10T00:55:51.683Z,994.41
2016-11-10T00:57:07.804Z,994.44
2016-11-10T00:58:23.664Z,994.47
2016-11-10T00:59:38.046Z,994.51
2016-11-10T01:00:52.509Z,994.48
2016-11-10T01:02:07.112Z,994.5
2016-11-10T01:03:23.524Z,994.48
2016-11-10T01:04:39.214Z,994.5
2016-11-10T01:05:54.520Z,994.5
2016-11-10T01:07:10.755Z,994.56
2016-11-10T01:08:26.926Z,994.58
2016-11-10T01:09:43.381Z,994.6
2016-11-10T01:10:59.679Z,994.63
2016-11-10T01:12:15.470Z,994.66
2016-11-10T01:13:29.830Z,994.66
2016-11-10T01:14:44.373Z,994.66
2016-11-10T01:16:01.167Z,994.69
2016-11-10T01:17:15.611Z,994.64
2016-11-10T01:18:30.228Z,994.68
2016-11-10T01:19:44.591Z,994.7
2016-11-10T01:21:00.949Z,994.71
2016-11-10T01:22:16.795Z,994.75
2016-11-10T01:23:32.925Z,994.74
2016-11-10T01:24:49.113Z,994.78
2016-11-10T01:26:04.895Z,994.76
2016-11-10T01:27:21.504Z,994.76
2016-11-10T01:28:38.022Z,994.78
2016-11-10T01:29:51.203Z,994.77
2016-11-10T01:31:07.607Z,994.81
2016-11-10T01:32:22.170Z,994.85
2016-11-10T01:33:37.859Z,994.86
2016-11-10T01:34:53.662Z,994.89
2016-11-10T01:36:08.797Z,994.9
2016-11-10T01:37:24.950Z,994.88
2016-11-10T01:38:39.539Z,994.88
2016-11-10T01:39:53.698Z,994.82
2016-11-10T01:41:07.894Z,994.86
2016-11-10T01:42:22.318Z,994.86
2016-11-10T01:43:35.648Z,994.86
2016-11-10T01:44:51.557Z,994.9
2016-11-10T01:46:07.583Z,994.88
2016-11-10T01:47:23.402Z,994.89
2016-11-10T01:48:38.605Z,994.91
2016-11-10T01:49:53.220Z,994.94
2016-11-10T01:51:07.399Z,994.92
2016-11-10T01:52:20.642Z,994.95
2016-11-10T01:53:35.022Z,994.95
2016-11-10T01:54:50.659Z,994.98
2016-11-10T01:56:07.053Z,995.01
2016-11-10T01:57:22.154Z,995.03
2016-11-10T01:58:38.532Z,995.08
2016-11-10T01:59:52.927Z,995.06
2016-11-10T02:01:08.790Z,995.05
2016-11-10T02:02:23.431Z,995.03
2016-11-10T02:03:35.150Z,995.03
2016-11-10T02:04:51.322Z,995.04
2016-11-10T02:06:05.909Z,995.09
2016-11-10T02:07:20.533Z,995.06
2016-11-10T02:08:36.212Z,995.07
2016-11-10T02:09:49.489Z,995.03
2016-11-10T02:11:05.369Z,995.08
2016-11-10T02:12:21.931Z,995.08
2016-11-10T02:13:34.680Z,995.03
2016-11-10T02:14:50.983Z,995.08
2016-11-10T02:16:07.176Z,995.05
2016-11-10T02:17:21.387Z,995.02
2016-11-10T02:18:36.576Z,995.02
2016-11-10T02:19:50.792Z,995.04
2016-11-10T02:21:05.700Z,995.02
2016-11-10T02:22:19.899Z,995.02
2016-11-10T02:23:36.254Z,995.04
2016-11-10T02:24:52.293Z,995.06
2016-11-10T02:26:06.525Z,995.05
2016-11-10T02:27:22.969Z,994.99
2016-11-10T02:28:38.550Z,995.03
2016-11-10T02:29:52.765Z,995.03
2016-11-10T02:31:07.373Z,995.05
2016-11-10T02:32:21.915Z,995.05
2016-11-10T02:33:36.312Z,995.03
2016-11-10T02:34:52.675Z,995.08
2016-11-10T02:36:06.835Z,995.05
2016-11-10T02:37:21.181Z,995.09
2016-11-10T02:38:35.567Z,995.09
2016-11-10T02:39:50.490Z,995.05
2016-11-10T02:41:04.714Z,995.1
2016-11-10T02:42:19.113Z,995.13
2016-11-10T02:43:33.170Z,995.15
2016-11-10T02:44:47.220Z,995.18
2016-11-10T02:46:01.396Z,995.18
2016-11-10T02:47:15.845Z,995.18
2016-11-10T02:48:28.395Z,995.2
2016-11-10T02:49:42.945Z,995.24
2016-11-10T02:50:59.122Z,995.29
2016-11-10T02:52:11.718Z,995.27
2016-11-10T02:53:27.149Z,995.29
2016-11-10T02:54:43.217Z,995.32
2016-11-10T02:55:58.166Z,995.37
2016-11-10T02:57:12.381Z,995.33
2016-11-10T02:58:26.893Z,995.36
2016-11-10T02:59:41.528Z,995.4
2016-11-10T03:00:54.993Z,995.41
2016-11-10T03:02:09.000Z,995.45
2016-11-10T03:03:23.029Z,995.47
2016-11-10T03:04:39.237Z,995.45
2016-11-10T03:05:55.307Z,995.52
2016-11-10T03:07:10.177Z,995.5
2016-11-10T03:08:26.597Z,995.51
2016-11-10T03:09:41.360Z,995.53
2016-11-10T03:10:56.085Z,995.55
2016-11-10T03:12:11.746Z,995.53
2016-11-10T03:13:27.588Z,995.55
2016-11-10T03:14:43.793Z,995.54
2016-11-10T03:15:58.673Z,995.55
2016-11-10T03:17:15.414Z,995.53
2016-11-10T03:18:31.491Z,995.54
2016-11-10T03:19:48.285Z,995.54
2016-11-10T03:21:03.936Z,995.56
2016-11-10T03:22:19.037Z,995.55
2016-11-10T03:23:34.636Z,995.52
2016-11-10T03:24:50.401Z,995.53
2016-11-10T03:26:05.032Z,995.56
2016-11-10T03:27:21.149Z,995.54
2016-11-10T03:28:36.633Z,995.57
2016-11-10T03:29:52.438Z,995.56
2016-11-10T03:31:08.288Z,995.56
2016-11-10T03:32:23.980Z,995.55
2016-11-10T03:33:38.739Z,995.58
2016-11-10T03:34:55.116Z,995.57
2016-11-10T03:36:10.773Z,995.55
2016-11-10T03:37:23.740Z,995.56
2016-11-10T03:38:37.964Z,995.6
2016-11-10T03:39:52.862Z,995.57
2016-11-10T03:41:07.665Z,995.59
2016-11-10T03:42:23.879Z,995.61
2016-11-10T03:43:38.627Z,995.57
2016-11-10T03:44:54.648Z,995.61
2016-11-10T03:46:11.041Z,995.61
2016-11-10T03:47:27.074Z,995.62
2016-11-10T03:48:42.882Z,995.64
2016-11-10T03:49:57.990Z,995.66
2016-11-10T03:51:11.179Z,995.61
2016-11-10T03:52:25.434Z,995.61
2016-11-10T03:53:39.630Z,995.58
2016-11-10T03:54:55.692Z,995.58
2016-11-10T03:56:08.994Z,995.56
2016-11-10T03:57:24.901Z,995.54
2016-11-10T03:58:41.168Z,995.52
2016-11-10T03:59:57.492Z,995.57
2016-11-10T04:01:12.393Z,995.58
2016-11-10T04:02:24.976Z,995.6
2016-11-10T04:03:41.591Z,995.62
2016-11-10T04:04:56.260Z,995.67
2016-11-10T04:06:10.660Z,995.66
2016-11-10T04:07:25.306Z,995.64
2016-11-10T04:08:41.108Z,995.69
2016-11-10T04:09:56.984Z,995.72
2016-11-10T04:11:08.291Z,995.75
2016-11-10T04:12:22.461Z,995.76
2016-11-10T04:13:38.476Z,995.74
2016-11-10T04:14:51.856Z,995.74
2016-11-10T04:16:08.100Z,995.72
2016-11-10T04:17:23.501Z,995.76
2016-11-10T04:18:39.016Z,995.76
2016-11-10T04:19:54.463Z,995.7
2016-11-10T04:21:10.477Z,995.72
2016-11-10T04:22:25.976Z,995.72
2016-11-10T04:23:42.476Z,995.74
2016-11-10T04:24:58.487Z,995.8
2016-11-10T04:26:13.238Z,995.8
2016-11-10T04:27:29.477Z,995.8
2016-11-10T04:28:43.756Z,995.82
2016-11-10T04:29:59.433Z,995.74
2016-11-10T04:31:15.280Z,995.76
2016-11-10T04:32:31.671Z,995.79
2016-11-10T04:33:46.237Z,995.85
2016-11-10T04:35:02.098Z,995.83
2016-11-10T04:36:18.296Z,995.84
2016-11-10T04:37:34.010Z,995.8
2016-11-10T04:38:49.897Z,995.79
2016-11-10T04:40:06.098Z,995.81
2016-11-10T04:41:18.863Z,995.81
2016-11-10T04:42:35.304Z,995.85
2016-11-10T04:43:51.111Z,995.9
2016-11-10T04:45:05.654Z,995.92
2016-11-10T04:46:21.655Z,995.94
2016-11-10T04:47:34.497Z,995.92
2016-11-10T04:48:50.839Z,995.94
2016-11-10T04:50:04.679Z,995.95
2016-11-10T04:51:20.776Z,995.9
2016-11-10T04:52:37.245Z,995.94
2016-11-10T04:53:52.040Z,995.94
2016-11-10T04:55:04.790Z,995.95
2016-11-10T04:56:19.227Z,995.98
2016-11-10T04:57:34.215Z,995.98
2016-11-10T04:58:45.740Z,996.01
2016-11-10T05:00:01.566Z,996.03
2016-11-10T05:01:11.760Z,996.06
2016-11-10T05:02:25.865Z,996.07
2016-11-10T05:03:39.102Z,996.07
2016-11-10T05:04:53.500Z,996.1
2016-11-10T05:06:09.000Z,996.09
2016-11-10T05:07:25.771Z,996.11
2016-11-10T05:08:40.178Z,996.18
2016-11-10T05:09:55.677Z,996.2
2016-11-10T05:11:12.320Z,996.2
2016-11-10T05:12:28.506Z,996.2
2016-11-10T05:13:41.464Z,996.22
2016-11-10T05:14:58.051Z,996.26
2016-11-10T05:16:14.283Z,996.28
2016-11-10T05:17:30.718Z,996.2
2016-11-10T05:18:47.145Z,996.21
2016-11-10T05:20:01.920Z,996.22
2016-11-10T05:21:15.980Z,996.24
2016-11-10T05:22:32.213Z,996.26
2016-11-10T05:23:47.858Z,996.23
2016-11-10T05:25:04.220Z,996.23
2016-11-10T05:26:20.654Z,996.29
2016-11-10T05:27:35.469Z,996.3
2016-11-10T05:28:49.141Z,996.28
2016-11-10T05:30:04.849Z,996.31
2016-11-10T05:31:18.414Z,996.33
2016-11-10T05:32:34.616Z,996.34
2016-11-10T05:33:50.635Z,996.28
2016-11-10T05:35:04.539Z,996.33
2016-11-10T05:36:19.134Z,996.31
2016-11-10T05:37:33.942Z,996.34
2016-11-10T05:38:50.129Z,996.32
2016-11-10T05:40:05.808Z,996.34
2016-11-10T05:41:20.409Z,996.42
2016-11-10T05:42:36.944Z,996.52
2016-11-10T05:43:50.135Z,996.51
2016-11-10T05:45:04.559Z,996.53
2016-11-10T05:46:20.600Z,996.53
2016-11-10T05:47:36.415Z,996.54
2016-11-10T05:48:51.140Z,996.55
2016-11-10T05:50:07.141Z,996.56
2016-11-10T05:51:23.384Z,996.55
2016-11-10T05:52:37.575Z,996.62
2016-11-10T05:53:52.354Z,996.66
2016-11-10T05:55:07.301Z,996.63
2016-11-10T05:56:21.954Z,996.69
2016-11-10T05:57:36.914Z,996.68
2016-11-10T05:58:51.440Z,996.74
2016-11-10T06:00:06.031Z,996.73
2016-11-10T06:01:22.768Z,996.74
2016-11-10T06:02:36.979Z,996.75
2016-11-10T06:03:53.208Z,996.79
2016-11-10T06:05:08.507Z,996.77
2016-11-10T06:06:24.711Z,996.82
2016-11-10T06:07:40.376Z,996.83
2016-11-10T06:08:57.053Z,996.84
2016-11-10T06:10:11.804Z,996.87
2016-11-10T06:11:26.580Z,996.91
2016-11-10T06:12:40.574Z,996.86
2016-11-10T06:13:57.237Z,996.93
2016-11-10T06:15:11.502Z,996.92
2016-11-10T06:16:26.160Z,996.96
2016-11-10T06:17:39.292Z,996.96
2016-11-10T06:18:53.506Z,996.99
2016-11-10T06:20:09.668Z,996.99
2016-11-10T06:21:22.232Z,997
2016-11-10T06:22:37.206Z,996.99
2016-11-10T06:23:53.260Z,996.99
2016-11-10T06:25:09.470Z,997.01
2016-11-10T06:26:25.162Z,997.04
2016-11-10T06:27:41.198Z,997
2016-11-10T06:28:57.236Z,997.03
2016-11-10T06:30:13.736Z,997.09
2016-11-10T06:31:28.108Z,997.11
2016-11-10T06:32:44.276Z,997.15
2016-11-10T06:33:58.651Z,997.17
2016-11-10T06:35:14.155Z,997.21
2016-11-10T06:36:30.132Z,997.15
2016-11-10T06:37:45.612Z,997.16
2016-11-10T06:39:01.731Z,997.17
2016-11-10T06:40:15.361Z,997.21
2016-11-10T06:41:31.399Z,997.2
2016-11-10T06:42:46.291Z,997.21
2016-11-10T06:44:01.755Z,997.24
2016-11-10T06:45:18.254Z,997.28
2016-11-10T06:46:33.169Z,997.32
2016-11-10T06:47:49.050Z,997.32
2016-11-10T06:49:05.308Z,997.39
2016-11-10T06:50:19.518Z,997.37
2016-11-10T06:51:35.224Z,997.33
2016-11-10T06:52:49.866Z,997.33
2016-11-10T06:54:05.934Z,997.37
2016-11-10T06:55:21.637Z,997.39
2016-11-10T06:56:36.562Z,997.41
2016-11-10T06:57:52.784Z,997.4
2016-11-10T06:59:07.233Z,997.43
2016-11-10T07:00:21.834Z,997.48
2016-11-10T07:01:38.602Z,997.46
2016-11-10T07:02:55.069Z,997.47
2016-11-10T07:04:10.050Z,997.49
2016-11-10T07:05:24.284Z,997.5
2016-11-10T07:06:39.402Z,997.52
2016-11-10T07:07:55.555Z,997.52
2016-11-10T07:09:08.654Z,997.56
2016-11-10T07:10:22.857Z,997.6
2016-11-10T07:11:38.875Z,997.62
2016-11-10T07:12:53.770Z,997.62
2016-11-10T07:14:09.800Z,997.57
2016-11-10T07:15:22.812Z,997.58
2016-11-10T07:16:38.347Z,997.56
2016-11-10T07:17:55.027Z,997.53
2016-11-10T07:19:11.752Z,997.55
2016-11-10T07:20:27.715Z,997.57
2016-11-10T07:21:43.452Z,997.58
2016-11-10T07:22:58.020Z,997.6
2016-11-10T07:24:14.260Z,997.66
2016-11-10T07:25:29.964Z,997.7
2016-11-10T07:26:45.969Z,997.67
2016-11-10T07:28:02.358Z,997.72
2016-11-10T07:29:18.174Z,997.72
2016-11-10T07:30:34.646Z,997.71
2016-11-10T07:31:48.817Z,997.8
2016-11-10T07:33:04.684Z,997.83
2016-11-10T07:34:19.976Z,997.87
2016-11-10T07:35:36.160Z,997.88
2016-11-10T07:36:50.217Z,997.88
2016-11-10T07:38:05.193Z,997.92
2016-11-10T07:39:21.409Z,997.94
2016-11-10T07:40:37.409Z,997.96
2016-11-10T07:41:53.833Z,997.93
2016-11-10T07:43:09.522Z,997.94
2016-11-10T07:44:22.505Z,997.94
2016-11-10T07:45:39.262Z,997.98
2016-11-10T07:46:55.029Z,997.99
2016-11-10T07:48:09.298Z,997.99
2016-11-10T07:49:25.451Z,998.03
2016-11-10T07:50:41.472Z,997.99
2016-11-10T07:51:55.967Z,998.05
2016-11-10T07:53:09.361Z,998.05
2016-11-10T07:54:25.425Z,998.03
2016-11-10T07:55:41.872Z,998.04
2016-11-10T07:56:56.633Z,998
2016-11-10T07:58:12.725Z,998.05
2016-11-10T07:59:27.746Z,998.03
2016-11-10T08:00:42.884Z,998.08
2016-11-10T08:01:58.909Z,998.08
2016-11-10T08:03:13.870Z,998.11
2016-11-10T08:04:29.977Z,998.1
2016-11-10T08:05:45.088Z,998.11
2016-11-10T08:07:00.967Z,998.11
2016-11-10T08:08:14.361Z,998.14
2016-11-10T08:09:30.050Z,998.12
2016-11-10T08:10:44.292Z,998.15
2016-11-10T08:12:00.104Z,998.15
2016-11-10T08:13:16.566Z,998.14
2016-11-10T08:14:32.988Z,998.16
2016-11-10T08:15:47.215Z,998.18
2016-11-10T08:17:01.638Z,998.2
2016-11-10T08:18:17.885Z,998.2
2016-11-10T08:19:32.869Z,998.18
2016-11-10T08:20:48.747Z,998.19
2016-11-10T08:22:04.486Z,998.19
2016-11-10T08:23:20.795Z,998.19
2016-11-10T08:24:36.848Z,998.24
2016-11-10T08:25:53.582Z,998.18
2016-11-10T08:27:10.327Z,998.22
2016-11-10T08:28:26.344Z,998.23
2016-11-10T08:29:39.666Z,998.26
2016-11-10T08:30:51.433Z,998.22
2016-11-10T08:32:07.536Z,998.23
2016-11-10T08:33:23.811Z,998.24
2016-11-10T08:34:40.673Z,998.2
2016-11-10T08:35:56.321Z,998.23
2016-11-10T08:37:11.659Z,998.2
2016-11-10T08:38:26.269Z,998.26
2016-11-10T08:39:42.148Z,998.26
2016-11-10T08:40:56.793Z,998.25
2016-11-10T08:42:11.009Z,998.27
2016-11-10T08:43:26.851Z,998.29
2016-11-10T08:44:43.250Z,998.28
2016-11-10T08:45:58.733Z,998.25
2016-11-10T08:47:14.923Z,998.26
2016-11-10T08:48:30.869Z,998.29
2016-11-10T08:49:44.387Z,998.29
2016-11-10T08:51:01.151Z,998.27
2016-11-10T08:52:17.778Z,998.3
2016-11-10T08:53:34.083Z,998.29
2016-11-10T08:54:50.145Z,998.31
2016-11-10T08:56:06.029Z,998.34
2016-11-10T08:57:21.175Z,998.33
2016-11-10T08:58:37.222Z,998.34
2016-11-10T08:59:52.191Z,998.32
2016-11-10T09:01:07.492Z,998.35
2016-11-10T09:02:23.512Z,998.34
2016-11-10T09:03:38.752Z,998.37
2016-11-10T09:04:55.243Z,998.42
2016-11-10T09:06:10.158Z,998.4
2016-11-10T09:07:24.731Z,998.39
2016-11-10T09:08:41.267Z,998.37
2016-11-10T09:09:56.941Z,998.38
2016-11-10T09:11:11.748Z,998.42
2016-11-10T09:12:26.179Z,998.4
2016-11-10T09:13:38.794Z,998.44
2016-11-10T09:14:53.811Z,998.42
2016-11-10T09:16:09.984Z,998.41
2016-11-10T09:17:24.225Z,998.41
2016-11-10T09:18:40.067Z,998.42
2016-11-10T09:19:56.595Z,998.43
2016-11-10T09:21:12.765Z,998.47
2016-11-10T09:22:28.073Z,998.47
2016-11-10T09:23:41.223Z,998.48
2016-11-10T09:24:57.520Z,998.49
2016-11-10T09:26:10.688Z,998.46
2016-11-10T09:27:23.679Z,998.48
2016-11-10T09:28:40.321Z,998.52
2016-11-10T09:29:52.086Z,998.52
2016-11-10T09:31:05.908Z,998.52
2016-11-10T09:32:21.942Z,998.52
2016-11-10T09:33:37.949Z,998.5
2016-11-10T09:34:52.729Z,998.51
2016-11-10T09:36:09.325Z,998.49
2016-11-10T09:37:24.778Z,998.48
2016-11-10T09:38:41.533Z,998.52
2016-11-10T09:39:58.166Z,998.47
2016-11-10T09:41:12.613Z,998.53
2016-11-10T09:42:28.445Z,998.51
2016-11-10T09:43:42.711Z,998.51
2016-11-10T09:44:57.101Z,998.52
2016-11-10T09:46:10.377Z,998.48
2016-11-10T09:47:26.761Z,998.49
2016-11-10T09:48:42.283Z,998.55
2016-11-10T09:49:58.670Z,998.51
2016-11-10T09:51:14.687Z,998.53
2016-11-10T09:52:29.146Z,998.53
2016-11-10T09:53:44.705Z,998.51
2016-11-10T09:55:00.716Z,998.5
2016-11-10T09:56:13.732Z,998.52
2016-11-10T09:57:30.111Z,998.56
2016-11-10T09:58:46.041Z,998.56
2016-11-10T10:00:02.293Z,998.56
2016-11-10T10:01:16.915Z,998.6
2016-11-10T10:02:31.119Z,998.66
2016-11-10T10:03:45.664Z,998.63
2016-11-10T10:05:00.330Z,998.64
2016-11-10T10:06:16.524Z,998.65
2016-11-10T10:07:32.474Z,998.61
2016-11-10T10:08:47.241Z,998.68
2016-11-10T10:10:02.936Z,998.66
2016-11-10T10:11:18.952Z,998.66
2016-11-10T10:12:34.020Z,998.65
2016-11-10T10:13:50.235Z,998.67
2016-11-10T10:15:05.061Z,998.69
2016-11-10T10:16:20.937Z,998.71
2016-11-10T10:17:33.669Z,998.75
2016-11-10T10:18:46.266Z,998.72
2016-11-10T10:20:00.894Z,998.72
2016-11-10T10:21:14.061Z,998.69
2016-11-10T10:22:29.349Z,998.72
2016-11-10T10:23:43.951Z,998.72
2016-11-10T10:24:59.598Z,998.76
2016-11-10T10:26:14.190Z,998.72
2016-11-10T10:27:27.546Z,998.75
2016-11-10T10:28:43.215Z,998.72
2016-11-10T10:29:57.935Z,998.73
2016-11-10T10:31:11.062Z,998.71
2016-11-10T10:32:25.913Z,998.72
2016-11-10T10:33:41.744Z,998.73
2016-11-10T10:34:56.170Z,998.73
2016-11-10T10:36:10.396Z,998.73
2016-11-10T10:37:25.016Z,998.75
2016-11-10T10:38:37.971Z,998.74
2016-11-10T10:39:52.626Z,998.74
2016-11-10T10:41:06.086Z,998.74
2016-11-10T10:42:20.335Z,998.76
2016-11-10T10:43:36.754Z,998.76
2016-11-10T10:44:52.444Z,998.73
2016-11-10T10:46:05.372Z,998.73
2016-11-10T10:47:21.584Z,998.71
2016-11-10T10:48:36.535Z,998.7
2016-11-10T10:49:52.949Z,998.69
2016-11-10T10:51:05.545Z,998.67
2016-11-10T10:52:20.068Z,998.64
2016-11-10T10:53:36.079Z,998.59
2016-11-10T10:54:50.670Z,998.53
2016-11-10T10:56:06.690Z,998.52
2016-11-10T10:57:18.208Z,998.49
2016-11-10T10:58:33.667Z,998.47
2016-11-10T10:59:48.850Z,998.51
2016-11-10T11:01:04.508Z,998.48
2016-11-10T11:02:20.896Z,998.52
2016-11-10T11:03:35.511Z,998.57
2016-11-10T11:04:50.413Z,998.53
2016-11-10T11:06:05.617Z,998.51
2016-11-10T11:07:21.844Z,998.49
2016-11-10T11:08:38.334Z,998.47
2016-11-10T11:09:52.924Z,998.48
2016-11-10T11:11:07.853Z,998.47
2016-11-10T11:12:22.419Z,998.45
2016-11-10T11:13:37.709Z,998.44
2016-11-10T11:14:51.917Z,998.4
2016-11-10T11:16:06.325Z,998.46
2016-11-10T11:17:20.352Z,998.45
2016-11-10T11:18:33.884Z,998.51
2016-11-10T11:19:45.937Z,998.51
2016-11-10T11:20:59.178Z,998.47
2016-11-10T11:22:12.733Z,998.5
2016-11-10T11:23:28.591Z,998.49
2016-11-10T11:24:44.488Z,998.5
2016-11-10T11:25:58.030Z,998.46
2016-11-10T11:27:14.103Z,998.43
2016-11-10T11:28:28.318Z,998.45
2016-11-10T11:29:44.766Z,998.41
2016-11-10T11:31:01.192Z,998.36
2016-11-10T11:32:15.628Z,998.32
2016-11-10T11:33:28.625Z,998.34
2016-11-10T11:34:44.478Z,998.3
2016-11-10T11:35:59.808Z,998.27
2016-11-10T11:37:16.243Z,998.33
2016-11-10T11:38:28.169Z,998.29
2016-11-10T11:39:44.771Z,998.33
2016-11-10T11:40:59.006Z,998.31
2016-11-10T11:42:13.890Z,998.37
2016-11-10T11:43:27.675Z,998.4
2016-11-10T11:44:44.002Z,998.38
2016-11-10T11:46:00.440Z,998.38
2016-11-10T11:47:16.752Z,998.35
2016-11-10T11:48:32.386Z,998.38
2016-11-10T11:49:48.186Z,998.38
2016-11-10T11:51:04.315Z,998.34
2016-11-10T11:52:20.488Z,998.35
2016-11-10T11:53:35.049Z,998.34
2016-11-10T11:54:50.696Z,998.33
2016-11-10T11:56:06.546Z,998.36
2016-11-10T11:57:22.021Z,998.39
2016-11-10T11:58:36.549Z,998.34
2016-11-10T11:59:51.122Z,998.39
2016-11-10T12:01:06.970Z,998.34
2016-11-10T12:02:22.841Z,998.34
2016-11-10T12:03:37.604Z,998.38
2016-11-10T12:04:54.648Z,998.36
2016-11-10T12:06:10.906Z,998.37
2016-11-10T12:07:26.726Z,998.37
2016-11-10T12:08:42.505Z,998.42
2016-11-10T12:09:56.744Z,998.42
2016-11-10T12:11:12.531Z,998.39
2016-11-10T12:12:28.268Z,998.45
2016-11-10T12:13:44.094Z,998.45
2016-11-10T12:15:00.124Z,998.42
2016-11-10T12:16:14.907Z,998.45
2016-11-10T12:17:31.087Z,998.44
2016-11-10T12:18:45.557Z,998.43
2016-11-10T12:20:01.576Z,998.4
2016-11-10T12:21:17.396Z,998.41
2016-11-10T12:22:31.754Z,998.42
2016-11-10T12:23:47.607Z,998.43
2016-11-10T12:25:02.240Z,998.44
2016-11-10T12:26:15.805Z,998.41
2016-11-10T12:27:30.444Z,998.4
2016-11-10T12:28:44.717Z,998.39
2016-11-10T12:29:59.152Z,998.38
2016-11-10T12:31:13.760Z,998.4
2016-11-10T12:32:25.750Z,998.37
2016-11-10T12:33:41.564Z,998.31
2016-11-10T12:34:57.493Z,998.29
2016-11-10T12:36:12.317Z,998.29
2016-11-10T12:37:28.329Z,998.25
2016-11-10T12:38:42.736Z,998.25
2016-11-10T12:39:58.389Z,998.26
2016-11-10T12:41:14.473Z,998.23
2016-11-10T12:42:30.672Z,998.2
2016-11-10T12:43:46.853Z,998.17
2016-11-10T12:45:02.896Z,998.18
2016-11-10T12:46:18.911Z,998.2
2016-11-10T12:47:34.130Z,998.19
2016-11-10T12:48:50.001Z,998.15
2016-11-10T12:50:04.430Z,998.2
2016-11-10T12:51:18.097Z,998.17
2016-11-10T12:52:33.770Z,998.14
2016-11-10T12:53:48.209Z,998.21
2016-11-10T12:55:04.827Z,998.2
2016-11-10T12:56:20.931Z,998.15
2016-11-10T12:57:37.174Z,998.17
2016-11-10T12:58:51.949Z,998.18
2016-11-10T13:00:08.248Z,998.16
2016-11-10T13:01:24.413Z,998.18
2016-11-10T13:02:40.332Z,998.18
2016-11-10T13:03:56.081Z,998.16
2016-11-10T13:05:10.581Z,998.14
2016-11-10T13:06:27.357Z,998.15
2016-11-10T13:07:43.566Z,998.16
2016-11-10T13:09:00.002Z,998.15
2016-11-10T13:10:15.722Z,998.17
2016-11-10T13:11:31.359Z,998.23
2016-11-10T13:12:47.603Z,998.23
2016-11-10T13:14:01.703Z,998.25
2016-11-10T13:15:17.519Z,998.26
2016-11-10T13:16:32.316Z,998.26
2016-11-10T13:17:48.189Z,998.28
2016-11-10T13:19:03.486Z,998.29
2016-11-10T13:20:19.163Z,998.29
2016-11-10T13:21:34.807Z,998.25
2016-11-10T13:22:50.511Z,998.25
2016-11-10T13:24:04.795Z,998.25
2016-11-10T13:25:20.640Z,998.25
2016-11-10T13:26:35.526Z,998.24
2016-11-10T13:27:51.721Z,998.24
2016-11-10T13:29:07.942Z,998.24
2016-11-10T13:30:22.513Z,998.23
2016-11-10T13:31:39.119Z,998.21
2016-11-10T13:32:53.683Z,998.18
2016-11-10T13:34:09.535Z,998.19
2016-11-10T13:35:26.250Z,998.19
2016-11-10T13:36:42.479Z,998.15
2016-11-10T13:37:58.685Z,998.21
2016-11-10T13:39:15.302Z,998.17
2016-11-10T13:40:29.716Z,998.19
2016-11-10T13:41:45.930Z,998.2
2016-11-10T13:43:02.683Z,998.23
2016-11-10T13:44:18.402Z,998.21
2016-11-10T13:45:34.259Z,998.24
2016-11-10T13:46:47.574Z,998.18
2016-11-10T13:48:03.916Z,998.19
2016-11-10T13:49:20.124Z,998.23
2016-11-10T13:50:33.279Z,998.19
2016-11-10T13:51:48.226Z,998.19
2016-11-10T13:53:04.075Z,998.18
2016-11-10T13:54:20.438Z,998.21
2016-11-10T13:55:36.686Z,998.22
2016-11-10T13:56:51.273Z,998.19
2016-11-10T13:58:04.456Z,998.2
2016-11-10T13:59:20.842Z,998.2
2016-11-10T14:00:37.041Z,998.2
2016-11-10T14:01:53.097Z,998.19
2016-11-10T14:03:07.762Z,998.14
2016-11-10T14:04:23.260Z,998.15
2016-11-10T14:05:38.713Z,998.15
2016-11-10T14:06:53.308Z,998.19
2016-11-10T14:08:06.957Z,998.15
2016-11-10T14:09:21.177Z,998.18
2016-11-10T14:10:36.167Z,998.18
2016-11-10T14:11:49.590Z,998.21
2016-11-10T14:13:04.240Z,998.2
2016-11-10T14:14:20.101Z,998.22
2016-11-10T14:15:34.300Z,998.25
2016-11-10T14:16:51.188Z,998.27
2016-11-10T14:18:05.216Z,998.34
2016-11-10T14:19:21.251Z,998.31
2016-11-10T14:20:37.200Z,998.32
2016-11-10T14:21:51.575Z,998.34
2016-11-10T14:23:06.021Z,998.36
2016-11-10T14:24:18.943Z,998.35
2016-11-10T14:25:33.737Z,998.36
2016-11-10T14:26:50.150Z,998.36
2016-11-10T14:28:04.947Z,998.39
2016-11-10T14:29:20.140Z,998.36
2016-11-10T14:30:36.266Z,998.34
2016-11-10T14:31:52.729Z,998.34
2016-11-10T14:33:08.022Z,998.28
2016-11-10T14:34:21.107Z,998.33
2016-11-10T14:35:35.566Z,998.3
2016-11-10T14:36:51.258Z,998.29
2016-11-10T14:38:06.019Z,998.32
2016-11-10T14:39:20.604Z,998.29
2016-11-10T14:40:35.222Z,998.33
2016-11-10T14:41:49.640Z,998.35
2016-11-10T14:43:04.046Z,998.37
2016-11-10T14:44:18.848Z,998.42
2016-11-10T14:45:34.523Z,998.38
2016-11-10T14:46:50.624Z,998.37
2016-11-10T14:48:06.319Z,998.38
2016-11-10T14:49:21.223Z,998.4
2016-11-10T14:50:36.933Z,998.38
2016-11-10T14:51:51.822Z,998.37
2016-11-10T14:53:08.216Z,998.37
2016-11-10T14:54:23.856Z,998.39
2016-11-10T14:55:39.788Z,998.38
2016-11-10T14:56:52.503Z,998.37
2016-11-10T14:58:08.525Z,998.36
2016-11-10T14:59:22.814Z,998.35
2016-11-10T15:00:38.641Z,998.36
2016-11-10T15:01:53.322Z,998.34
2016-11-10T15:03:09.420Z,998.29
2016-11-10T15:04:24.160Z,998.36
2016-11-10T15:05:37.353Z,998.28
2016-11-10T15:06:50.850Z,998.33
2016-11-10T15:08:05.815Z,998.34
2016-11-10T15:09:20.230Z,998.37
2016-11-10T15:10:36.815Z,998.37
2016-11-10T15:11:51.345Z,998.39
2016-11-10T15:13:07.450Z,998.43
2016-11-10T15:14:23.515Z,998.41
2016-11-10T15:15:37.769Z,998.4
2016-11-10T15:16:53.833Z,998.35
2016-11-10T15:18:09.940Z,998.32
2016-11-10T15:19:25.791Z,998.31
2016-11-10T15:20:40.094Z,998.3
2016-11-10T15:21:56.107Z,998.33
2016-11-10T15:23:11.764Z,998.33
2016-11-10T15:24:25.246Z,998.33
2016-11-10T15:25:38.259Z,998.32
2016-11-10T15:26:53.988Z,998.35
2016-11-10T15:28:09.637Z,998.34
2016-11-10T15:29:25.871Z,998.38
2016-11-10T15:30:42.091Z,998.38
2016-11-10T15:31:56.429Z,998.37
2016-11-10T15:33:11.946Z,998.35
2016-11-10T15:34:23.903Z,998.34
2016-11-10T15:35:40.012Z,998.39
2016-11-10T15:36:54.273Z,998.42
2016-11-10T15:38:08.653Z,998.47
2016-11-10T15:39:24.133Z,998.45
2016-11-10T15:40:38.995Z,998.5
2016-11-10T15:41:53.601Z,998.52